Time;durP1;ratioP1;P1;durP2;ratioP2;P2;SDS_P1;SDS_P2;PMS_P1;PMS_P2;Temp;Humidity;BMP_temperature;BMP_pressure;BME280_temperature;BME280_humidity;BME280_pressure;Samples;Min_cycle;Max_cycle;Signal;HPM_P1;HPM_P2
2022/01/23 00:01:55;;;;;;;2.27;1.07;;;;;;;9.91;40.75;101244.66;4934749;29;20151;-72
2022/01/23 00:04:24;;;;;;;4.63;2.13;;;;;;;9.82;40.82;101239.78;4935455;29;20419;-72
2022/01/23 00:06:52;;;;;;;2.37;1.53;;;;;;;9.47;40.83;101188.00;4928339;29;20139;-71
2022/01/23 00:09:18;;;;;;;2.87;2.37;;;;;;;9.76;40.68;101229.66;4963263;28;20079;-71
2022/01/23 00:11:51;;;;;;;3.13;2.40;;;;;;;9.91;40.71;101241.88;4930729;29;20150;-71
2022/01/23 00:17:20;;;;;;;3.83;1.53;;;;;;;9.90;40.65;101233.75;4932180;29;20169;-70
2022/01/23 00:19:54;;;;;;;4.57;2.70;;;;;;;9.92;40.44;101234.34;4934599;29;20138;-72
2022/01/23 00:22:26;;;;;;;3.33;2.10;;;;;;;9.96;40.34;101244.72;4934139;29;20063;-69
2022/01/23 00:30:29;;;;;;;2.37;2.17;;;;;;;9.88;40.51;101219.19;4927520;29;20475;-69
2022/01/23 00:32:58;;;;;;;3.13;1.80;;;;;;;9.93;40.50;101228.50;4920098;29;20131;-69
2022/01/23 00:35:26;;;;;;;2.10;1.55;;;;;;;9.94;40.54;101223.75;4933512;29;20135;-67
2022/01/23 00:37:55;;;;;;;4.03;1.60;;;;;;;9.94;40.52;101226.53;4932417;29;20518;-70
2022/01/23 00:40:23;;;;;;;2.57;1.90;;;;;;;9.88;40.47;101222.00;4929856;29;20139;-69
2022/01/23 00:42:50;;;;;;;2.87;1.50;;;;;;;9.83;40.58;101216.38;4930054;29;20052;-66
2022/01/23 00:45:33;;;;;;;4.67;2.03;;;;;;;9.28;40.78;101137.28;4933995;29;20479;-69
2022/01/23 00:48:05;;;;;;;1.13;1.03;;;;;;;9.71;40.73;101214.56;4932637;29;20044;-71
2022/01/23 00:50:39;;;;;;;1.23;1.03;;;;;;;9.73;40.88;101217.91;4936207;29;20080;-71
2022/01/23 00:53:09;;;;;;;2.47;1.67;;;;;;;9.69;41.04;101213.13;4934121;29;20468;-70
2022/01/23 00:55:41;;;;;;;4.27;2.13;;;;;;;9.78;40.73;101210.69;4933940;29;20131;-71
2022/01/23 00:58:10;;;;;;;3.20;2.10;;;;;;;9.82;40.72;101217.47;4928825;29;20144;-70
2022/01/23 01:00:39;;;;;;;1.20;1.10;;;;;;;9.72;40.69;101195.88;4942925;28;20626;-70
2022/01/23 01:03:07;;;;;;;3.20;2.43;;;;;;;9.80;40.78;101202.94;4926847;29;20060;-70
2022/01/23 01:05:34;;;;;;;1.20;1.10;;;;;;;9.53;41.05;101173.03;4934570;29;20076;-71
2022/01/23 01:08:03;;;;;;;2.90;2.00;;;;;;;9.73;40.74;101195.59;4946234;29;20060;-71
2022/01/23 01:10:40;;;;;;;5.80;2.40;;;;;;;9.81;40.81;101196.25;4930545;29;20143;-71
2022/01/23 01:13:22;;;;;;;3.47;1.40;;;;;;;9.70;40.79;101190.53;4933912;29;20083;-71
2022/01/23 01:16:00;;;;;;;4.90;2.40;;;;;;;9.79;40.77;101190.09;4929016;29;20040;-75
2022/01/23 01:35:17;;;;;;;2.30;1.80;;;;;;;9.69;40.40;101147.03;4935305;29;20134;-70
2022/01/23 01:37:44;;;;;;;4.63;2.83;;;;;;;9.99;40.36;101193.13;4933162;29;20079;-69
2022/01/23 01:40:11;;;;;;;3.80;1.80;;;;;;;9.79;40.27;101149.09;4932701;29;20111;-73
2022/01/23 01:42:38;;;;;;;5.07;2.87;;;;;;;9.97;40.34;101186.97;4934192;29;20147;-74
2022/01/23 01:45:05;;;;;;;5.40;2.33;;;;;;;9.85;40.04;101170.38;4934720;29;20087;-71
2022/01/23 01:47:32;;;;;;;3.83;2.90;;;;;;;9.76;40.29;101152.41;4928397;29;20500;-69
2022/01/23 01:49:59;;;;;;;2.03;1.00;;;;;;;9.85;40.76;101187.13;4929879;29;20134;-70
2022/01/23 01:52:26;;;;;;;3.30;0.67;;;;;;;9.73;41.00;101178.84;4930944;29;20047;-72
2022/01/23 01:55:00;;;;;;;2.27;1.40;;;;;;;9.71;40.95;101181.09;4923572;28;20131;-69
2022/01/23 01:57:39;;;;;;;1.57;1.47;;;;;;;9.56;41.66;101183.66;4927841;29;20079;-69
2022/01/23 02:08:30;;;;;;;2.20;1.27;;;;;;;9.40;42.16;101185.41;4922230;29;20477;-73
2022/01/23 02:11:03;;;;;;;1.03;0.93;;;;;;;9.33;42.19;101183.88;4929922;29;20119;-71
2022/01/23 02:13:34;;;;;;;3.27;1.83;;;;;;;9.36;42.20;101184.22;4931866;29;20476;-71
2022/01/23 02:16:30;;;;;;;3.80;2.07;;;;;;;9.40;41.88;101162.25;4927471;29;20142;-70
2022/01/23 02:54:42;;;;;;;4.18;2.03;;;;;;;9.49;42.24;101160.69;4937460;29;20052;-74
2022/01/23 02:57:10;;;;;;;5.13;1.50;;;;;;;9.53;42.24;101161.88;4938027;29;20055;-69
2022/01/23 02:59:39;;;;;;;3.83;2.67;;;;;;;9.50;42.25;101159.59;4936928;29;20165;-69
2022/01/23 03:04:38;;;;;;;4.47;2.00;;;;;;;9.58;42.04;101156.38;4936812;29;20134;-70
2022/01/23 03:15:23;;;;;;;2.13;1.73;;;;;;;9.46;42.11;101144.50;4932874;29;20079;-70
2022/01/23 03:34:19;;;;;;;3.60;2.10;;;;;;;9.29;42.03;101149.28;4962938;29;20036;-68
2022/01/23 03:36:46;;;;;;;6.13;2.53;;;;;;;9.41;42.25;101166.75;4954773;29;20058;-69
2022/01/23 03:39:14;;;;;;;2.33;1.60;;;;;;;9.12;42.55;101129.81;4976104;29;20048;-70
2022/01/23 03:41:43;;;;;;;4.97;2.20;;;;;;;9.40;42.17;101156.66;4934568;29;20079;-70
2022/01/23 03:44:15;;;;;;;3.17;1.63;;;;;;;9.38;42.36;101164.47;4926299;29;20079;-69
2022/01/23 03:52:06;;;;;;;4.97;3.03;;;;;;;9.32;42.40;101159.91;4934860;29;20013;-70
2022/01/23 03:54:34;;;;;;;8.73;3.83;;;;;;;9.37;42.33;101163.63;4919569;29;20052;-71
2022/01/23 03:57:03;;;;;;;9.47;3.67;;;;;;;9.30;42.33;101157.41;4933883;29;20086;-69
2022/01/23 03:59:31;;;;;;;5.27;3.07;;;;;;;9.28;42.47;101159.59;4936491;29;20503;-69
2022/01/23 04:01:59;;;;;;;6.53;3.17;;;;;;;9.11;42.43;101125.34;4947534;28;20047;-69
2022/01/23 04:04:38;;;;;;;8.43;3.73;;;;;;;9.22;42.38;101138.31;4937664;29;20522;-71
2022/01/23 04:07:18;;;;;;;4.60;2.97;;;;;;;9.25;42.52;101149.78;4933520;29;20127;-71
2022/01/23 04:09:47;;;;;;;6.93;3.15;;;;;;;9.33;42.20;101156.00;4936389;29;20083;-71
2022/01/23 04:12:46;;;;;;;9.37;4.20;;;;;;;9.39;42.05;101163.34;4929634;29;20143;-69
2022/01/23 04:15:27;;;;;;;6.40;2.43;;;;;;;9.22;41.98;101147.50;4928125;29;20083;-70
2022/01/23 04:20:37;;;;;;;3.00;1.07;;;;;;;9.12;42.53;101146.53;4936935;29;20056;-70
2022/01/23 05:06:42;;;;;;;3.80;1.60;;;;;;;8.29;43.44;101087.84;4936385;29;20131;-67
2022/01/23 05:09:10;;;;;;;2.53;1.37;;;;;;;8.55;43.29;101128.13;4933725;29;20138;-66
2022/01/23 05:11:43;;;;;;;2.37;1.57;;;;;;;8.62;43.02;101127.94;4933851;29;20570;-67
2022/01/23 05:14:11;;;;;;;4.53;2.60;;;;;;;8.63;42.78;101112.94;4934338;29;20083;-67
2022/01/23 05:16:38;;;;;;;2.43;1.00;;;;;;;8.52;43.07;101111.91;4931406;29;20061;-67
2022/01/23 05:19:05;;;;;;;1.00;0.93;;;;;;;8.32;43.24;101096.53;4935496;29;20126;-65
2022/01/23 05:24:08;;;;;;;2.97;1.80;;;;;;;8.55;43.05;101119.78;4931112;29;20556;-66
2022/01/23 05:26:42;;;;;;;1.33;1.23;;;;;;;8.57;42.96;101125.91;4935322;29;20053;-66
2022/01/23 05:29:10;;;;;;;2.03;1.93;;;;;;;8.52;43.06;101121.13;4933363;29;20052;-67
2022/01/23 05:31:37;;;;;;;1.83;1.53;;;;;;;8.55;43.09;101122.56;4933867;29;20570;-67
2022/01/23 05:34:05;;;;;;;1.00;1.00;;;;;;;8.01;43.06;101045.09;4936098;29;20134;-69
2022/01/23 05:36:32;;;;;;;1.77;1.40;;;;;;;8.38;43.33;101116.97;4935299;29;20051;-72
2022/01/23 05:38:59;;;;;;;2.30;1.73;;;;;;;8.32;43.60;101109.59;4931090;29;20603;-71
2022/01/23 05:41:27;;;;;;;2.20;1.23;;;;;;;8.26;43.79;101114.22;4935651;29;20079;-69
2022/01/23 05:43:54;;;;;;;3.33;1.50;;;;;;;8.29;43.63;101108.16;4932705;29;20135;-69
2022/01/23 05:46:21;;;;;;;2.53;1.60;;;;;;;8.21;43.67;101105.81;4913940;29;20052;-69
2022/01/23 05:48:48;;;;;;;3.40;2.33;;;;;;;7.89;43.96;101069.31;4930346;29;20054;-68
2022/01/23 05:51:15;;;;;;;3.17;2.37;;;;;;;8.09;43.80;101110.59;4966354;28;20090;-69
2022/01/23 05:53:42;;;;;;;3.13;1.30;;;;;;;8.12;43.85;101112.03;4941298;29;20138;-68
2022/01/23 05:56:09;;;;;;;2.13;1.40;;;;;;;8.16;43.63;101114.03;4935382;29;20500;-69
2022/01/23 05:58:37;;;;;;;2.30;1.90;;;;;;;8.10;43.56;101103.06;4930093;29;20067;-70
2022/01/23 06:01:05;;;;;;;2.60;1.77;;;;;;;7.60;43.41;101007.38;4922517;29;20122;-77
2022/01/23 06:03:32;;;;;;;1.53;1.43;;;;;;;8.16;43.46;101102.91;4932132;29;20525;-76
2022/01/23 06:05:59;;;;;;;2.00;0.93;;;;;;;8.23;43.46;101114.72;4935239;29;20063;-77
2022/01/23 06:08:26;;;;;;;1.00;0.93;;;;;;;8.24;43.24;101118.38;4933212;29;20550;-77
2022/01/23 06:10:54;;;;;;;2.03;1.10;;;;;;;8.40;42.85;101105.59;4930092;29;20072;-69
2022/01/23 06:13:21;;;;;;;2.30;1.17;;;;;;;8.27;43.10;101099.25;4934476;29;20143;-76
2022/01/23 06:15:48;;;;;;;1.43;1.33;;;;;;;8.28;43.05;101120.41;4933307;29;20134;-69
2022/01/23 06:18:15;;;;;;;3.83;1.80;;;;;;;8.20;42.72;101084.63;4933506;29;20107;-70
2022/01/23 06:20:42;;;;;;;2.40;1.27;;;;;;;8.16;42.61;101086.22;4934146;29;20134;-71
2022/01/23 06:23:09;;;;;;;0.70;0.70;;;;;;;8.43;42.69;101113.44;4932693;29;20567;-73
2022/01/23 06:25:37;;;;;;;1.17;1.07;;;;;;;8.15;42.66;101078.97;4933698;29;20087;-73
2022/01/23 06:28:06;;;;;;;1.90;1.07;;;;;;;8.38;42.80;101114.19;4933821;29;20458;-73
2022/01/23 06:30:34;;;;;;;0.80;0.80;;;;;;;8.39;42.56;101120.59;4931530;29;20134;-70
2022/01/23 06:33:03;;;;;;;3.63;1.00;;;;;;;8.44;42.56;101120.66;4934823;29;20051;-71
2022/01/23 06:35:30;;;;;;;4.68;1.45;;;;;;;8.31;42.19;101074.53;4920061;29;20052;-71
2022/01/23 06:37:57;;;;;;;1.40;1.10;;;;;;;8.57;42.16;101125.06;4934012;29;20155;-71
2022/01/23 06:40:24;;;;;;;0.53;0.53;;;;;;;8.54;42.18;101120.84;4927622;29;20095;-72
2022/01/23 06:42:53;;;;;;;2.20;1.30;;;;;;;8.34;42.24;101087.06;4925732;29;20075;-72
2022/01/23 06:45:20;;;;;;;3.03;1.27;;;;;;;8.49;42.10;101113.25;4932864;29;20062;-71
2022/01/23 06:47:47;;;;;;;3.53;1.90;;;;;;;8.70;41.90;101122.78;4934477;29;20075;-72
2022/01/23 06:50:14;;;;;;;1.20;1.00;;;;;;;8.65;42.08;101117.16;4934726;29;20463;-72
2022/01/23 06:52:41;;;;;;;4.23;2.27;;;;;;;8.48;41.88;101082.91;4934074;29;20079;-71
2022/01/23 06:55:08;;;;;;;7.27;1.70;;;;;;;8.66;41.98;101124.41;4929492;29;20056;-70
2022/01/23 06:57:35;;;;;;;4.37;2.30;;;;;;;8.69;41.71;101128.63;4932765;29;20056;-70
2022/01/23 07:00:05;;;;;;;3.17;2.03;;;;;;;8.66;41.82;101129.13;4928210;29;20574;-71
2022/01/23 07:02:32;;;;;;;2.38;1.40;;;;;;;8.52;41.83;101118.31;4934594;29;20078;-68
2022/01/23 07:04:59;;;;;;;2.97;1.53;;;;;;;8.57;41.88;101134.25;4933337;29;20507;-68
2022/01/23 07:07:26;;;;;;;1.83;0.97;;;;;;;8.08;41.92;101061.63;4932489;29;20079;-73
2022/01/23 07:09:53;;;;;;;1.33;1.23;;;;;;;8.01;41.93;101049.81;4929090;29;20154;-73
2022/01/23 07:12:20;;;;;;;1.37;1.20;;;;;;;8.57;41.80;101148.19;4928007;29;20585;-73
2022/01/23 07:14:47;;;;;;;1.67;1.47;;;;;;;8.34;41.93;101110.19;4930809;29;20052;-73
2022/01/23 07:17:13;;;;;;;1.40;1.13;;;;;;;8.63;41.92;101149.97;4931603;29;20047;-73
2022/01/23 07:19:40;;;;;;;2.00;1.43;;;;;;;8.54;41.81;101148.69;4946797;28;20086;-74
2022/01/23 07:22:08;;;;;;;2.70;1.07;;;;;;;8.47;42.05;101159.13;4934840;29;20160;-73
2022/01/23 07:24:34;;;;;;;2.33;1.40;;;;;;;8.33;42.28;101144.66;4930888;29;20455;-75
2022/01/23 07:27:11;;;;;;;0.80;0.80;;;;;;;8.35;42.49;101161.13;4928248;29;20140;-76
2022/01/23 07:29:41;;;;;;;2.03;1.43;;;;;;;8.39;42.39;101154.84;4950756;28;20126;-73
2022/01/23 07:32:09;;;;;;;1.33;0.90;;;;;;;8.36;42.53;101165.59;4923686;29;20174;-70
2022/01/23 07:34:37;;;;;;;3.33;1.93;;;;;;;8.48;42.13;101166.41;4932843;29;20063;-73
2022/01/23 07:37:04;;;;;;;1.27;1.17;;;;;;;8.18;42.50;101144.41;4934531;29;20478;-76
2022/01/23 07:39:31;;;;;;;1.30;1.20;;;;;;;7.84;42.77;101106.25;4923336;29;20076;-74
2022/01/23 07:41:58;;;;;;;2.87;1.70;;;;;;;8.21;42.89;101167.00;4928809;29;20115;-71
2022/01/23 07:44:26;;;;;;;1.83;1.53;;;;;;;8.09;42.95;101157.88;4963495;28;20135;-74
2022/01/23 07:46:52;;;;;;;3.80;1.27;;;;;;;8.13;42.98;101161.84;4932888;29;20083;-71
2022/01/23 07:49:20;;;;;;;1.33;1.13;;;;;;;8.20;42.95;101179.22;4935884;29;20410;-79
2022/01/23 07:51:48;;;;;;;1.63;1.50;;;;;;;7.83;43.30;101131.53;4932084;29;20150;-70
2022/01/23 07:54:15;;;;;;;1.67;1.10;;;;;;;8.12;43.07;101171.28;4934968;29;20047;-76
2022/01/23 07:56:42;;;;;;;6.03;1.97;;;;;;;8.12;43.21;101179.63;4918077;29;20090;-75
2022/01/23 07:59:09;;;;;;;3.13;1.13;;;;;;;8.08;43.24;101172.88;4943489;28;20047;-73
2022/01/23 08:01:39;;;;;;;1.83;1.20;;;;;;;8.08;43.18;101170.94;4927300;29;20094;-73
2022/01/23 08:04:07;;;;;;;2.65;1.30;;;;;;;7.92;43.14;101152.25;4928197;29;20060;-76
2022/01/23 08:06:43;;;;;;;1.30;1.20;;;;;;;7.93;43.24;101141.97;4925670;29;20060;-74
2022/01/23 08:09:10;;;;;;;2.58;1.23;;;;;;;8.14;43.04;101185.81;4926013;29;20059;-75
2022/01/23 08:11:37;;;;;;;1.60;1.47;;;;;;;7.61;42.89;101100.78;4925176;29;20519;-74
2022/01/23 08:14:04;;;;;;;1.50;1.20;;;;;;;8.35;42.74;101188.97;4935961;29;20087;-74
2022/01/23 08:16:30;;;;;;;3.10;1.97;;;;;;;8.58;42.39;101188.00;4925908;29;20150;-73
2022/01/23 08:18:57;;;;;;;2.33;1.70;;;;;;;8.79;41.92;101195.63;4929173;29;21966;-72
2022/01/23 08:21:24;;;;;;;1.47;1.30;;;;;;;8.94;41.75;101189.44;4924581;29;20058;-70
2022/01/23 08:23:53;;;;;;;3.33;1.90;;;;;;;9.14;41.35;101184.19;4933176;29;20055;-74
2022/01/23 08:26:21;;;;;;;2.27;1.13;;;;;;;9.53;40.87;101188.91;4921040;29;20052;-73
2022/01/23 08:28:48;;;;;;;1.33;1.23;;;;;;;9.79;40.42;101204.03;4921434;29;20047;-73
2022/01/23 08:31:15;;;;;;;1.47;1.37;;;;;;;10.01;39.91;101202.06;4919513;29;20083;-72
2022/01/23 08:33:42;;;;;;;3.70;1.70;;;;;;;10.22;39.21;101203.13;4922193;29;20055;-74
2022/01/23 08:36:08;;;;;;;4.13;2.33;;;;;;;10.15;39.16;101186.63;4922425;29;20155;-73
2022/01/23 08:38:35;;;;;;;4.03;1.57;;;;;;;10.27;38.73;101171.69;4923154;29;20085;-73
2022/01/23 08:43:38;;;;;;;1.40;1.20;;;;;;;10.58;38.24;101178.41;4931719;29;20138;-73
2022/01/23 08:46:05;;;;;;;1.10;0.97;;;;;;;10.72;37.83;101187.19;4934604;29;20439;-73
2022/01/23 08:48:32;;;;;;;3.20;1.30;;;;;;;10.98;37.51;101191.88;4932041;29;20040;-73
2022/01/23 08:50:59;;;;;;;2.70;1.60;;;;;;;11.22;37.34;101191.50;4924657;29;20094;-74
2022/01/23 08:53:26;;;;;;;3.73;2.07;;;;;;;11.57;36.86;101194.50;4922868;29;20114;-74
2022/01/23 08:55:53;;;;;;;2.63;2.10;;;;;;;11.86;36.40;101194.09;4927633;29;20130;-73
2022/01/23 08:58:20;;;;;;;3.50;2.03;;;;;;;12.19;35.93;101200.38;4927690;28;20048;-74
2022/01/23 09:00:47;;;;;;;4.53;1.40;;;;;;;12.37;35.58;101199.84;4929212;29;20138;-73
2022/01/23 09:03:14;;;;;;;2.17;1.63;;;;;;;12.36;35.14;101147.75;4925669;29;20047;-73
2022/01/23 09:05:42;;;;;;;5.53;3.53;;;;;;;13.09;34.97;101199.91;4924188;29;20415;-73
2022/01/23 09:08:09;;;;;;;3.53;2.20;;;;;;;13.23;34.32;101140.16;4921498;29;20048;-74
2022/01/23 09:10:41;;;;;;;2.67;1.73;;;;;;;13.89;33.79;101203.69;4923746;29;20155;-73
2022/01/23 09:13:25;;;;;;;2.83;1.90;;;;;;;14.05;33.24;101207.28;4923555;29;20070;-73
2022/01/23 09:15:52;;;;;;;1.07;1.03;;;;;;;14.14;33.02;101210.31;4929251;29;20079;-73
2022/01/23 09:18:19;;;;;;;6.37;2.67;;;;;;;14.28;32.56;101211.34;4924969;29;20680;-73
2022/01/23 09:20:46;;;;;;;4.13;2.10;;;;;;;14.57;32.41;101208.69;4920893;29;20056;-74
2022/01/23 09:23:13;;;;;;;3.13;2.23;;;;;;;14.51;32.02;101212.66;4924620;29;20085;-74
2022/01/23 09:25:40;;;;;;;2.17;1.70;;;;;;;14.43;31.78;101210.44;4918544;29;20522;-75
2022/01/23 09:28:12;;;;;;;2.07;1.60;;;;;;;14.49;31.99;101205.59;4921260;29;20043;-76
2022/01/23 09:30:48;;;;;;;2.40;2.20;;;;;;;14.27;31.59;101206.03;4924527;29;20154;-72
2022/01/23 09:33:16;;;;;;;2.87;1.93;;;;;;;14.25;32.12;101203.50;4916901;29;20645;-73
2022/01/23 09:35:45;;;;;;;1.75;1.63;;;;;;;14.31;31.91;101216.38;4931192;29;20079;-74
2022/01/23 09:38:11;;;;;;;2.37;1.97;;;;;;;14.41;31.61;101216.31;4953168;28;20062;-74
2022/01/23 09:40:42;;;;;;;1.53;1.43;;;;;;;14.57;31.63;101207.84;4928768;29;20134;-74
2022/01/23 09:43:17;;;;;;;3.90;2.50;;;;;;;14.96;31.22;101198.53;4918264;29;20056;-75
2022/01/23 09:45:50;;;;;;;2.87;2.10;;;;;;;15.35;30.55;101199.31;4921852;29;20147;-76
2022/01/23 09:48:18;;;;;;;4.93;2.00;;;;;;;15.44;30.34;101212.72;4923059;29;20055;-73
2022/01/23 09:50:48;;;;;;;3.27;2.23;;;;;;;15.39;30.40;101208.00;4921518;29;20079;-74
2022/01/23 09:53:16;;;;;;;4.35;2.50;;;;;;;15.70;30.12;101208.53;4928723;29;20158;-75
2022/01/23 09:55:49;;;;;;;2.07;1.87;;;;;;;15.90;29.72;101218.72;4927125;29;20134;-74
2022/01/23 09:58:16;;;;;;;4.63;3.00;;;;;;;15.96;29.36;101211.84;4961498;28;20251;-75
2022/01/23 10:00:43;;;;;;;3.40;2.00;;;;;;;15.68;29.29;101233.31;4931096;29;20055;-75
2022/01/23 10:03:10;;;;;;;2.20;1.63;;;;;;;15.78;29.67;101209.84;4925641;29;20275;-73
2022/01/23 10:05:37;;;;;;;4.20;2.10;;;;;;;15.85;29.42;101219.59;4929853;29;20102;-75
2022/01/23 10:08:06;;;;;;;2.10;1.77;;;;;;;15.90;29.61;101224.34;4933262;28;20521;-74
2022/01/23 10:10:38;;;;;;;2.30;1.93;;;;;;;15.73;29.45;101218.34;4932115;29;20056;-75
2022/01/23 10:13:07;;;;;;;3.50;2.20;;;;;;;15.63;29.59;101231.38;4929087;29;20183;-74
2022/01/23 10:15:34;;;;;;;1.70;1.60;;;;;;;15.57;29.49;101231.72;4930539;29;20518;-74
2022/01/23 10:18:02;;;;;;;2.90;2.30;;;;;;;15.63;29.69;101222.09;4922786;29;20079;-75
2022/01/23 10:20:29;;;;;;;3.30;2.43;;;;;;;15.26;29.55;101215.16;4933919;29;20129;-74
2022/01/23 10:22:58;;;;;;;3.23;2.07;;;;;;;15.23;29.96;101232.63;4927427;29;20476;-75
2022/01/23 10:25:28;;;;;;;2.63;1.83;;;;;;;15.45;29.96;101218.03;4933356;29;20062;-74
2022/01/23 10:28:07;;;;;;;3.33;2.40;;;;;;;15.49;29.79;101221.97;4932059;29;20051;-75
2022/01/23 10:30:45;;;;;;;1.70;1.60;;;;;;;15.13;29.96;101221.44;4931404;29;20135;-74
2022/01/23 10:33:24;;;;;;;2.97;2.10;;;;;;;15.19;30.17;101231.53;4930631;29;20079;-74
2022/01/23 10:36:01;;;;;;;2.43;2.13;;;;;;;15.16;30.18;101226.50;4934139;29;20109;-75
2022/01/23 10:38:57;;;;;;;5.33;2.57;;;;;;;15.10;30.43;101225.69;4932708;29;20126;-74
2022/01/23 10:41:46;;;;;;;6.83;3.30;;;;;;;15.51;30.41;101216.03;4931414;29;20052;-75
2022/01/23 10:49:57;;;;;;;;;;;;;;;15.48;30.29;101217.44;4935718;29;20414;-74
2022/01/23 10:52:33;;;;;;;5.20;2.47;;;;;;;16.03;29.99;101205.84;4928381;29;19922;-75
2022/01/23 10:55:13;;;;;;;3.20;2.53;;;;;;;16.18;29.63;101202.03;4933867;29;20051;-75
2022/01/23 10:57:43;;;;;;;5.50;3.00;;;;;;;16.20;29.47;101166.75;4929294;29;20131;-75
2022/01/23 11:00:28;;;;;;;2.50;2.30;;;;;;;16.13;29.25;101199.25;4938417;29;20095;-75
2022/01/23 11:02:58;;;;;;;2.67;2.13;;;;;;;16.19;29.45;101203.69;4939137;29;20055;-74
2022/01/23 11:05:34;;;;;;;4.68;2.65;;;;;;;16.00;29.17;101181.09;4939686;29;20051;-73
2022/01/23 11:08:01;;;;;;;2.30;2.10;;;;;;;16.38;29.36;101209.34;4939842;29;20079;-74
2022/01/23 11:10:28;;;;;;;3.30;2.92;;;;;;;16.63;28.99;101191.22;4927964;29;20094;-73
2022/01/23 11:18:38;;;;;;;2.08;1.92;;;;;;;16.78;28.82;101189.00;4938578;29;20065;-74
2022/01/23 11:21:18;;;;;;;4.78;3.10;;;;;;;17.01;28.75;101173.09;4936269;29;20047;-73
2022/01/23 11:24:01;;;;;;;3.92;2.90;;;;;;;17.42;28.77;101185.63;4935747;29;20120;-75
2022/01/23 11:26:28;;;;;;;5.40;3.67;;;;;;;17.49;28.12;101174.78;4950954;29;20104;-74
2022/01/23 11:28:56;;;;;;;2.85;2.58;;;;;;;17.94;28.04;101189.16;4950272;29;20059;-74
2022/01/23 11:31:23;;;;;;;6.18;3.47;;;;;;;18.07;27.62;101177.00;4953870;28;20036;-74
2022/01/23 11:33:51;;;;;;;2.28;2.08;;;;;;;18.12;27.41;101176.91;4957665;29;20095;-73
2022/01/23 11:36:21;;;;;;;5.75;3.97;;;;;;;18.61;27.41;101169.53;4946791;29;20056;-75
2022/01/23 11:38:50;;;;;;;4.05;3.05;;;;;;;19.31;26.91;101179.38;4948109;29;20063;-74
2022/01/23 11:55:32;;;;;;;7.78;4.07;;;;;;;21.81;24.61;101162.03;4933713;29;20111;-76
2022/01/23 11:58:00;;;;;;;5.38;4.13;;;;;;;23.02;24.14;101159.53;4931542;29;20142;-74
2022/01/23 12:00:34;;;;;;;5.70;3.78;;;;;;;24.17;23.23;101144.34;4930230;29;20122;-74
2022/01/23 12:03:12;;;;;;;6.63;3.95;;;;;;;24.69;21.98;101144.41;4925107;29;20570;-77
2022/01/23 12:05:50;;;;;;;5.13;4.00;;;;;;;24.65;21.26;101146.31;4923306;29;20051;-75
2022/01/23 12:08:23;;;;;;;8.70;4.93;;;;;;;24.53;21.86;101152.88;4929490;29;20524;-75
2022/01/23 12:17:16;;;;;;;6.18;4.65;;;;;;;26.23;21.03;101140.78;4927055;29;20047;-76
2022/01/23 12:19:53;;;;;;;6.15;4.40;;;;;;;27.06;20.20;101143.41;4927013;29;20166;-76
2022/01/23 12:22:40;;;;;;;6.65;5.35;;;;;;;27.80;20.02;101136.63;4923484;29;20168;-76
2022/01/23 12:25:23;;;;;;;7.70;4.55;;;;;;;28.22;19.14;101124.16;4929137;29;20138;-75
2022/01/23 12:28:11;;;;;;;9.00;5.45;;;;;;;27.99;19.34;101138.56;4934791;29;20135;-74
2022/01/23 12:30:41;;;;;;;6.63;4.80;;;;;;;28.35;19.17;101114.09;4964910;28;20503;-76
2022/01/23 12:33:40;;;;;;;5.28;4.75;;;;;;;28.56;18.79;101116.47;4959916;28;20717;-76
2022/01/23 12:36:19;;;;;;;6.45;5.13;;;;;;;29.02;18.91;101121.97;4935477;29;20737;-76
2022/01/23 12:38:53;;;;;;;6.95;4.85;;;;;;;29.52;18.11;101085.94;4927855;29;20112;-75
2022/01/23 12:41:27;;;;;;;6.45;4.85;;;;;;;30.13;17.76;101103.69;4930051;29;20090;-76
2022/01/23 12:44:08;;;;;;;6.03;4.88;;;;;;;30.48;17.67;101105.16;4927986;29;20174;-74
2022/01/23 12:46:42;;;;;;;4.38;3.70;;;;;;;30.63;17.13;101111.81;4924569;29;20107;-74
2022/01/23 12:49:28;;;;;;;6.80;4.82;;;;;;;30.74;17.06;101095.41;4922348;29;20519;-78
2022/01/23 12:52:14;;;;;;;6.47;4.75;;;;;;;30.58;16.91;101097.78;4924793;29;20052;-69
2022/01/23 12:54:47;;;;;;;5.90;4.75;;;;;;;30.76;16.79;101098.72;4918101;29;20059;-71
2022/01/23 12:57:30;;;;;;;7.10;4.68;;;;;;;30.73;16.34;101087.97;4928441;28;20142;-80
2022/01/23 13:00:01;;;;;;;6.13;5.03;;;;;;;30.34;15.92;101082.03;4924188;29;20075;-75
2022/01/23 13:02:37;;;;;;;7.50;5.43;;;;;;;29.65;16.04;101069.22;4927151;29;20138;-75
2022/01/23 13:05:04;;;;;;;8.60;5.47;;;;;;;29.77;16.36;101081.63;4933405;28;20065;-76
2022/01/23 13:12:56;;;;;;;8.63;6.97;;;;;;;31.17;16.13;101075.34;4924943;29;20404;-74
2022/01/23 13:32:30;;;;;;;5.47;4.95;;;;;;;30.14;15.28;101046.91;4920066;29;20066;-72
2022/01/23 13:35:05;;;;;;;7.53;3.90;;;;;;;29.25;15.84;101042.13;4919788;29;20142;-77
2022/01/23 13:37:36;;;;;;;6.85;3.22;;;;;;;27.48;16.78;101019.25;4920109;29;20142;-84
2022/01/23 13:40:13;;;;;;;4.57;3.03;;;;;;;25.87;18.15;101023.81;4922902;29;20130;-79
2022/01/23 13:57:37;;;;;;;5.80;3.80;;;;;;;20.29;21.94;101016.59;4919883;29;20130;-79
2022/01/23 14:02:38;;;;;;;6.40;3.33;;;;;;;19.13;23.73;100993.59;4920005;29;20452;-75
2022/01/23 14:05:11;;;;;;;5.85;3.60;;;;;;;18.83;24.01;100993.28;4927020;29;20051;-76
2022/01/23 14:07:41;;;;;;;5.72;3.35;;;;;;;18.55;24.13;100986.97;4955376;28;20083;-76
2022/01/23 14:10:29;;;;;;;4.85;3.10;;;;;;;18.26;24.49;100981.81;4926516;29;20103;-77
2022/01/23 14:13:14;;;;;;;6.55;3.33;;;;;;;18.15;24.33;100983.19;4934733;29;20130;-76
2022/01/23 14:15:53;;;;;;;5.72;2.92;;;;;;;18.04;24.88;100985.44;4964734;28;20511;-77
2022/01/23 14:18:28;;;;;;;7.28;3.15;;;;;;;17.94;24.98;100982.88;4924762;29;20560;-75
2022/01/23 14:21:01;;;;;;;5.22;2.45;;;;;;;17.85;25.27;100980.00;4918592;29;20139;-77
2022/01/23 14:23:29;;;;;;;4.57;2.75;;;;;;;17.80;25.34;100976.44;4920763;29;20062;-76
2022/01/23 14:26:04;;;;;;;11.82;3.63;;;;;;;17.72;25.25;100970.38;4922894;29;20131;-76
2022/01/23 14:28:40;;;;;;;6.10;3.45;;;;;;;17.63;25.34;100972.25;4931210;29;20565;-76
2022/01/23 14:31:17;;;;;;;3.77;2.90;;;;;;;17.58;25.35;100969.56;4936837;29;20139;-75
2022/01/23 14:33:48;;;;;;;5.67;2.70;;;;;;;17.55;25.50;100970.22;4930060;29;20410;-76
2022/01/23 14:36:32;;;;;;;5.60;2.70;;;;;;;17.51;25.73;100963.53;4936921;29;20142;-75
2022/01/23 14:39:11;;;;;;;6.80;2.90;;;;;;;17.39;25.74;100966.88;4938472;29;20091;-76
2022/01/23 14:41:41;;;;;;;4.45;2.70;;;;;;;17.32;26.00;100960.00;4930626;29;20048;-73
2022/01/23 14:44:26;;;;;;;7.68;3.35;;;;;;;17.26;26.15;100967.75;4933007;29;20115;-74
2022/01/23 14:46:57;;;;;;;5.77;3.37;;;;;;;17.08;26.33;100938.50;4921903;29;20059;-74
2022/01/23 14:49:27;;;;;;;5.43;3.20;;;;;;;17.15;27.09;100961.47;4923054;29;20044;-71
2022/01/23 14:51:57;;;;;;;7.77;3.43;;;;;;;17.09;27.43;100962.72;4923945;29;20079;-73
2022/01/23 14:54:25;;;;;;;;;;;;;;;16.96;26.60;100963.59;4922891;29;20091;-74
2022/01/23 14:56:52;;;;;;;5.73;2.40;;;;;;;16.97;26.92;100959.63;4927521;29;19987;-76
2022/01/23 14:59:19;;;;;;;6.77;3.67;;;;;;;16.89;27.41;100960.34;4924123;29;20589;-74
2022/01/23 15:01:47;;;;;;;8.47;3.40;;;;;;;16.90;28.15;100965.69;4927562;29;20126;-76
2022/01/23 15:04:15;;;;;;;5.30;3.30;;;;;;;16.91;28.19;100960.88;4924581;29;20055;-77
2022/01/23 15:06:46;;;;;;;8.17;3.60;;;;;;;16.92;27.86;100957.75;4924063;29;20059;-76
2022/01/23 15:09:15;;;;;;;5.70;3.13;;;;;;;16.93;27.93;100961.41;4940903;28;20059;-71
2022/01/23 15:11:43;;;;;;;7.40;3.60;;;;;;;16.82;27.92;100941.03;4932462;29;20064;-69
2022/01/23 15:14:10;;;;;;;6.33;3.60;;;;;;;16.89;27.82;100943.41;4931434;29;20130;-77
2022/01/23 15:16:39;;;;;;;7.30;3.60;;;;;;;16.97;27.69;100956.81;4927939;29;20058;-74
2022/01/23 15:19:08;;;;;;;6.57;3.13;;;;;;;16.93;28.17;100961.41;4932158;29;20096;-76
2022/01/23 15:21:35;;;;;;;6.07;3.93;;;;;;;16.83;28.55;100967.25;4935801;29;20095;-75
2022/01/23 15:24:03;;;;;;;9.37;4.40;;;;;;;16.76;28.95;100959.19;4921686;29;20111;-75
2022/01/23 15:26:33;;;;;;;13.57;4.83;;;;;;;16.65;29.75;100958.53;4924223;29;20087;-76
2022/01/23 15:29:00;;;;;;;9.90;4.50;;;;;;;16.26;30.90;100928.81;4919742;29;20151;-75
2022/01/23 15:31:27;;;;;;;9.07;4.73;;;;;;;16.25;31.62;100934.75;4921809;29;20052;-75